sensor_id;sensor_type;location;lat;lon;timestamp;temperature;humidity
19031;DHT22;9648;51.130;13.978;2022-09-09T00:02:08;12.40;99.90
19031;DHT22;9648;51.130;13.978;2022-09-09T00:04:38;12.30;99.90
19031;DHT22;9648;51.130;13.978;2022-09-09T00:07:12;12.30;99.90
19031;DHT22;9648;51.130;13.978;2022-09-09T00:09:46;12.30;99.90
19031;DHT22;9648;51.130;13.978;2022-09-09T00:12:17;12.20;99.90
19031;DHT22;9648;51.130;13.978;2022-09-09T00:14:49;12.30;99.90
19031;DHT22;9648;51.130;13.978;2022-09-09T00:17:26;12.20;99.90
19031;DHT22;9648;51.130;13.978;2022-09-09T00:20:03;12.20;99.90
19031;DHT22;9648;51.130;13.978;2022-09-09T00:22:32;12.20;99.90
19031;DHT22;9648;51.130;13.978;2022-09-09T00:25:10;12.20;99.90
19031;DHT22;9648;51.130;13.978;2022-09-09T00:27:43;12.20;99.90
19031;DHT22;9648;51.130;13.978;2022-09-09T00:30:17;12.20;99.90
19031;DHT22;9648;51.130;13.978;2022-09-09T00:32:46;12.10;99.90
19031;DHT22;9648;51.130;13.978;2022-09-09T00:35:17;12.10;99.90
19031;DHT22;9648;51.130;13.978;2022-09-09T00:37:46;12.10;99.90
19031;DHT22;9648;51.130;13.978;2022-09-09T00:40:24;12.10;99.90
19031;DHT22;9648;51.130;13.978;2022-09-09T00:43:14;12.10;99.90
19031;DHT22;9648;51.130;13.978;2022-09-09T00:46:14;12.00;99.90
19031;DHT22;9648;51.130;13.978;2022-09-09T00:48:52;12.00;99.90
19031;DHT22;9648;51.130;13.978;2022-09-09T00:51:29;12.10;99.90
19031;DHT22;9648;51.130;13.978;2022-09-09T00:54:18;12.10;99.90
19031;DHT22;9648;51.130;13.978;2022-09-09T00:56:57;12.10;99.90
19031;DHT22;9648;51.130;13.978;2022-09-09T00:59:32;12.10;99.90
19031;DHT22;9648;51.130;13.978;2022-09-09T01:02:03;12.10;99.90
19031;DHT22;9648;51.130;13.978;2022-09-09T01:04:36;12.10;99.90
19031;DHT22;9648;51.130;13.978;2022-09-09T01:07:10;12.00;99.90
19031;DHT22;9648;51.130;13.978;2022-09-09T01:09:50;12.00;99.90
19031;DHT22;9648;51.130;13.978;2022-09-09T01:12:25;12.00;99.90
19031;DHT22;9648;51.130;13.978;2022-09-09T01:15:03;11.90;99.90
19031;DHT22;9648;51.130;13.978;2022-09-09T01:17:33;11.90;99.90
19031;DHT22;9648;51.130;13.978;2022-09-09T01:20:05;11.90;99.90
19031;DHT22;9648;51.130;13.978;2022-09-09T01:22:43;11.80;99.90
19031;DHT22;9648;51.130;13.978;2022-09-09T01:25:20;11.80;99.90
19031;DHT22;9648;51.130;13.978;2022-09-09T01:27:52;11.80;99.90
19031;DHT22;9648;51.130;13.978;2022-09-09T01:30:21;11.80;99.90
19031;DHT22;9648;51.130;13.978;2022-09-09T01:32:50;11.80;99.90
19031;DHT22;9648;51.130;13.978;2022-09-09T01:35:26;11.90;99.90
19031;DHT22;9648;51.130;13.978;2022-09-09T01:37:54;11.90;99.90
19031;DHT22;9648;51.130;13.978;2022-09-09T01:40:22;11.90;99.90
19031;DHT22;9648;51.130;13.978;2022-09-09T01:42:50;11.90;99.90
19031;DHT22;9648;51.130;13.978;2022-09-09T01:45:18;11.90;99.90
19031;DHT22;9648;51.130;13.978;2022-09-09T01:47:45;11.90;99.90
19031;DHT22;9648;51.130;13.978;2022-09-09T01:50:15;11.90;99.90
19031;DHT22;9648;51.130;13.978;2022-09-09T01:52:44;11.90;99.90
19031;DHT22;9648;51.130;13.978;2022-09-09T01:55:12;11.90;99.90
19031;DHT22;9648;51.130;13.978;2022-09-09T01:57:44;11.90;99.90
19031;DHT22;9648;51.130;13.978;2022-09-09T02:00:15;11.90;99.90
19031;DHT22;9648;51.130;13.978;2022-09-09T02:02:48;11.90;99.90
19031;DHT22;9648;51.130;13.978;2022-09-09T02:05:28;12.00;99.90
19031;DHT22;9648;51.130;13.978;2022-09-09T02:08:03;12.00;99.90
19031;DHT22;9648;51.130;13.978;2022-09-09T02:10:36;12.00;99.90
19031;DHT22;9648;51.130;13.978;2022-09-09T02:13:08;12.00;99.90
19031;DHT22;9648;51.130;13.978;2022-09-09T02:15:43;11.90;99.90
19031;DHT22;9648;51.130;13.978;2022-09-09T02:18:13;11.90;99.90
19031;DHT22;9648;51.130;13.978;2022-09-09T02:20:43;11.90;99.90
19031;DHT22;9648;51.130;13.978;2022-09-09T02:23:12;11.80;99.90
19031;DHT22;9648;51.130;13.978;2022-09-09T02:25:41;11.80;99.90
19031;DHT22;9648;51.130;13.978;2022-09-09T02:28:11;11.80;99.90
19031;DHT22;9648;51.130;13.978;2022-09-09T02:30:41;11.80;99.90
19031;DHT22;9648;51.130;13.978;2022-09-09T02:33:10;11.80;99.90
19031;DHT22;9648;51.130;13.978;2022-09-09T02:35:39;11.80;99.90
19031;DHT22;9648;51.130;13.978;2022-09-09T02:38:09;11.80;99.90
19031;DHT22;9648;51.130;13.978;2022-09-09T02:40:38;11.70;99.90
19031;DHT22;9648;51.130;13.978;2022-09-09T02:43:05;11.70;99.90
19031;DHT22;9648;51.130;13.978;2022-09-09T02:45:38;11.70;99.90
19031;DHT22;9648;51.130;13.978;2022-09-09T02:48:17;11.70;99.90
19031;DHT22;9648;51.130;13.978;2022-09-09T02:50:54;11.70;99.90
19031;DHT22;9648;51.130;13.978;2022-09-09T02:53:32;11.70;99.90
19031;DHT22;9648;51.130;13.978;2022-09-09T02:56:04;11.70;99.90
19031;DHT22;9648;51.130;13.978;2022-09-09T02:58:32;11.60;99.90
19031;DHT22;9648;51.130;13.978;2022-09-09T03:00:59;11.60;99.90
19031;DHT22;9648;51.130;13.978;2022-09-09T03:03:29;11.50;99.90
19031;DHT22;9648;51.130;13.978;2022-09-09T03:05:56;11.50;99.90
19031;DHT22;9648;51.130;13.978;2022-09-09T03:08:23;11.50;99.90
19031;DHT22;9648;51.130;13.978;2022-09-09T03:10:50;11.40;99.90
19031;DHT22;9648;51.130;13.978;2022-09-09T03:13:19;11.40;99.90
19031;DHT22;9648;51.130;13.978;2022-09-09T03:15:47;11.40;99.90
19031;DHT22;9648;51.130;13.978;2022-09-09T03:18:15;11.40;99.90
19031;DHT22;9648;51.130;13.978;2022-09-09T03:20:43;11.30;99.90
19031;DHT22;9648;51.130;13.978;2022-09-09T03:23:11;11.30;99.90
19031;DHT22;9648;51.130;13.978;2022-09-09T03:25:39;11.30;99.90
19031;DHT22;9648;51.130;13.978;2022-09-09T03:28:06;11.20;99.90
19031;DHT22;9648;51.130;13.978;2022-09-09T03:30:33;11.20;99.90
19031;DHT22;9648;51.130;13.978;2022-09-09T03:33:00;11.20;99.90
19031;DHT22;9648;51.130;13.978;2022-09-09T03:35:27;11.30;99.90
19031;DHT22;9648;51.130;13.978;2022-09-09T03:37:56;11.20;99.90
19031;DHT22;9648;51.130;13.978;2022-09-09T03:40:23;11.20;99.90
19031;DHT22;9648;51.130;13.978;2022-09-09T03:42:49;11.20;99.90
19031;DHT22;9648;51.130;13.978;2022-09-09T03:45:16;11.20;99.90
19031;DHT22;9648;51.130;13.978;2022-09-09T03:47:43;11.10;99.90
19031;DHT22;9648;51.130;13.978;2022-09-09T03:50:10;11.10;99.90
19031;DHT22;9648;51.130;13.978;2022-09-09T03:52:38;11.10;99.90
19031;DHT22;9648;51.130;13.978;2022-09-09T03:55:07;11.10;99.90
19031;DHT22;9648;51.130;13.978;2022-09-09T03:57:35;11.10;99.90
19031;DHT22;9648;51.130;13.978;2022-09-09T04:00:03;11.10;99.90
19031;DHT22;9648;51.130;13.978;2022-09-09T04:02:30;11.10;99.90
19031;DHT22;9648;51.130;13.978;2022-09-09T04:04:57;11.10;99.90
19031;DHT22;9648;51.130;13.978;2022-09-09T04:07:25;11.10;99.90
19031;DHT22;9648;51.130;13.978;2022-09-09T04:09:52;11.10;99.90
19031;DHT22;9648;51.130;13.978;2022-09-09T04:12:21;11.00;99.90
19031;DHT22;9648;51.130;13.978;2022-09-09T04:14:48;11.00;99.90
19031;DHT22;9648;51.130;13.978;2022-09-09T04:17:14;11.00;99.90
19031;DHT22;9648;51.130;13.978;2022-09-09T04:19:41;11.00;99.90
19031;DHT22;9648;51.130;13.978;2022-09-09T04:22:08;11.00;99.90
19031;DHT22;9648;51.130;13.978;2022-09-09T04:24:35;11.00;99.90
19031;DHT22;9648;51.130;13.978;2022-09-09T04:27:02;11.00;99.90
19031;DHT22;9648;51.130;13.978;2022-09-09T04:29:30;11.10;99.90
19031;DHT22;9648;51.130;13.978;2022-09-09T04:31:57;11.10;99.90
19031;DHT22;9648;51.130;13.978;2022-09-09T04:34:23;11.10;99.90
19031;DHT22;9648;51.130;13.978;2022-09-09T04:36:50;11.20;99.90
19031;DHT22;9648;51.130;13.978;2022-09-09T04:39:17;11.20;99.90
19031;DHT22;9648;51.130;13.978;2022-09-09T04:41:45;11.20;99.90
19031;DHT22;9648;51.130;13.978;2022-09-09T04:44:12;11.20;99.90
19031;DHT22;9648;51.130;13.978;2022-09-09T04:46:40;11.20;99.90
19031;DHT22;9648;51.130;13.978;2022-09-09T04:49:07;11.20;99.90
19031;DHT22;9648;51.130;13.978;2022-09-09T04:51:34;11.20;99.90
19031;DHT22;9648;51.130;13.978;2022-09-09T04:54:00;11.30;99.90
19031;DHT22;9648;51.130;13.978;2022-09-09T04:56:27;11.30;99.90
19031;DHT22;9648;51.130;13.978;2022-09-09T04:58:54;11.30;99.90
19031;DHT22;9648;51.130;13.978;2022-09-09T05:01:21;11.40;99.90
19031;DHT22;9648;51.130;13.978;2022-09-09T05:03:50;11.40;99.90
19031;DHT22;9648;51.130;13.978;2022-09-09T05:06:20;11.40;99.90
19031;DHT22;9648;51.130;13.978;2022-09-09T05:08:47;11.50;99.90
19031;DHT22;9648;51.130;13.978;2022-09-09T05:11:16;11.50;99.90
19031;DHT22;9648;51.130;13.978;2022-09-09T05:13:44;11.60;99.90
19031;DHT22;9648;51.130;13.978;2022-09-09T05:16:10;11.70;99.90
19031;DHT22;9648;51.130;13.978;2022-09-09T05:18:37;11.70;99.90
19031;DHT22;9648;51.130;13.978;2022-09-09T05:21:06;11.80;99.90
19031;DHT22;9648;51.130;13.978;2022-09-09T05:23:33;11.80;99.90
19031;DHT22;9648;51.130;13.978;2022-09-09T05:26:01;11.90;99.90
19031;DHT22;9648;51.130;13.978;2022-09-09T05:28:28;12.00;99.90
19031;DHT22;9648;51.130;13.978;2022-09-09T05:30:57;12.00;99.90
19031;DHT22;9648;51.130;13.978;2022-09-09T05:33:24;12.10;99.90
19031;DHT22;9648;51.130;13.978;2022-09-09T05:35:56;12.10;99.90
19031;DHT22;9648;51.130;13.978;2022-09-09T05:38:24;12.20;99.90
19031;DHT22;9648;51.130;13.978;2022-09-09T05:40:51;12.30;99.90
19031;DHT22;9648;51.130;13.978;2022-09-09T05:43:18;12.30;99.90
19031;DHT22;9648;51.130;13.978;2022-09-09T05:45:46;12.40;99.90
19031;DHT22;9648;51.130;13.978;2022-09-09T05:48:13;12.50;99.90
19031;DHT22;9648;51.130;13.978;2022-09-09T05:50:40;12.60;99.90
19031;DHT22;9648;51.130;13.978;2022-09-09T05:53:08;12.70;99.90
19031;DHT22;9648;51.130;13.978;2022-09-09T05:55:36;12.80;99.90
19031;DHT22;9648;51.130;13.978;2022-09-09T05:58:03;12.90;99.90
19031;DHT22;9648;51.130;13.978;2022-09-09T06:00:29;13.00;99.90
19031;DHT22;9648;51.130;13.978;2022-09-09T06:02:57;13.10;99.90
19031;DHT22;9648;51.130;13.978;2022-09-09T06:05:24;13.20;99.90
19031;DHT22;9648;51.130;13.978;2022-09-09T06:07:52;13.40;99.90
19031;DHT22;9648;51.130;13.978;2022-09-09T06:10:19;13.50;99.90
19031;DHT22;9648;51.130;13.978;2022-09-09T06:12:47;13.60;99.90
19031;DHT22;9648;51.130;13.978;2022-09-09T06:15:14;13.70;99.90
19031;DHT22;9648;51.130;13.978;2022-09-09T06:17:41;13.80;99.90
19031;DHT22;9648;51.130;13.978;2022-09-09T06:20:10;13.90;99.90
19031;DHT22;9648;51.130;13.978;2022-09-09T06:22:39;14.00;99.90
19031;DHT22;9648;51.130;13.978;2022-09-09T06:25:07;14.20;99.90
19031;DHT22;9648;51.130;13.978;2022-09-09T06:27:34;14.30;99.90
19031;DHT22;9648;51.130;13.978;2022-09-09T06:30:03;14.40;99.90
19031;DHT22;9648;51.130;13.978;2022-09-09T06:32:30;14.50;99.90
19031;DHT22;9648;51.130;13.978;2022-09-09T06:35:00;14.60;99.90
19031;DHT22;9648;51.130;13.978;2022-09-09T06:37:27;14.60;99.90
19031;DHT22;9648;51.130;13.978;2022-09-09T06:39:53;14.80;99.90
19031;DHT22;9648;51.130;13.978;2022-09-09T06:42:20;14.90;99.90
19031;DHT22;9648;51.130;13.978;2022-09-09T06:44:47;15.00;99.90
19031;DHT22;9648;51.130;13.978;2022-09-09T06:47:15;15.00;99.90
19031;DHT22;9648;51.130;13.978;2022-09-09T06:49:42;15.00;99.90
19031;DHT22;9648;51.130;13.978;2022-09-09T06:52:09;15.10;99.90
19031;DHT22;9648;51.130;13.978;2022-09-09T06:54:35;15.00;99.90
19031;DHT22;9648;51.130;13.978;2022-09-09T06:57:02;15.00;99.90
19031;DHT22;9648;51.130;13.978;2022-09-09T06:59:32;15.00;99.90
19031;DHT22;9648;51.130;13.978;2022-09-09T07:01:59;15.00;99.90
19031;DHT22;9648;51.130;13.978;2022-09-09T07:04:27;15.10;99.90
19031;DHT22;9648;51.130;13.978;2022-09-09T07:06:54;15.10;99.90
19031;DHT22;9648;51.130;13.978;2022-09-09T07:09:21;15.20;99.90
19031;DHT22;9648;51.130;13.978;2022-09-09T07:11:49;15.30;99.90
19031;DHT22;9648;51.130;13.978;2022-09-09T07:14:18;15.30;99.90
19031;DHT22;9648;51.130;13.978;2022-09-09T07:16:45;15.40;99.90
19031;DHT22;9648;51.130;13.978;2022-09-09T07:19:13;15.40;99.90
19031;DHT22;9648;51.130;13.978;2022-09-09T07:21:42;15.50;99.90
19031;DHT22;9648;51.130;13.978;2022-09-09T07:24:09;15.60;99.90
19031;DHT22;9648;51.130;13.978;2022-09-09T07:26:37;15.70;99.90
19031;DHT22;9648;51.130;13.978;2022-09-09T07:29:04;15.70;99.90
19031;DHT22;9648;51.130;13.978;2022-09-09T07:31:32;15.80;99.90
19031;DHT22;9648;51.130;13.978;2022-09-09T07:34:00;15.90;99.90
19031;DHT22;9648;51.130;13.978;2022-09-09T07:36:28;16.10;99.90
19031;DHT22;9648;51.130;13.978;2022-09-09T07:38:58;16.20;99.90
19031;DHT22;9648;51.130;13.978;2022-09-09T07:41:26;16.40;99.90
19031;DHT22;9648;51.130;13.978;2022-09-09T07:43:54;16.50;99.90
19031;DHT22;9648;51.130;13.978;2022-09-09T07:46:23;16.50;99.90
19031;DHT22;9648;51.130;13.978;2022-09-09T07:48:51;16.60;99.90
19031;DHT22;9648;51.130;13.978;2022-09-09T07:51:21;16.80;99.90
19031;DHT22;9648;51.130;13.978;2022-09-09T07:53:50;17.00;99.90
19031;DHT22;9648;51.130;13.978;2022-09-09T07:56:19;17.30;99.90
19031;DHT22;9648;51.130;13.978;2022-09-09T07:58:47;17.50;99.90
19031;DHT22;9648;51.130;13.978;2022-09-09T08:01:16;17.70;99.90
19031;DHT22;9648;51.130;13.978;2022-09-09T08:03:43;17.80;99.90
19031;DHT22;9648;51.130;13.978;2022-09-09T08:06:11;17.80;99.90
19031;DHT22;9648;51.130;13.978;2022-09-09T08:08:39;17.90;99.90
19031;DHT22;9648;51.130;13.978;2022-09-09T08:11:10;17.90;99.90
19031;DHT22;9648;51.130;13.978;2022-09-09T08:13:39;18.00;99.90
19031;DHT22;9648;51.130;13.978;2022-09-09T08:16:07;18.00;99.90
19031;DHT22;9648;51.130;13.978;2022-09-09T08:18:34;18.10;99.90
19031;DHT22;9648;51.130;13.978;2022-09-09T08:21:08;18.10;99.90
19031;DHT22;9648;51.130;13.978;2022-09-09T08:23:37;18.20;99.90
19031;DHT22;9648;51.130;13.978;2022-09-09T08:26:06;18.30;99.90
19031;DHT22;9648;51.130;13.978;2022-09-09T08:28:34;18.40;99.90
19031;DHT22;9648;51.130;13.978;2022-09-09T08:31:11;18.60;99.90
19031;DHT22;9648;51.130;13.978;2022-09-09T08:33:39;18.70;99.90
19031;DHT22;9648;51.130;13.978;2022-09-09T08:36:08;18.80;99.90
19031;DHT22;9648;51.130;13.978;2022-09-09T08:38:35;19.00;99.90
19031;DHT22;9648;51.130;13.978;2022-09-09T08:41:32;19.10;99.90
19031;DHT22;9648;51.130;13.978;2022-09-09T08:44:05;19.30;99.90
19031;DHT22;9648;51.130;13.978;2022-09-09T08:46:38;19.50;99.90
19031;DHT22;9648;51.130;13.978;2022-09-09T08:49:19;19.50;99.90
19031;DHT22;9648;51.130;13.978;2022-09-09T08:51:48;19.60;99.90
19031;DHT22;9648;51.130;13.978;2022-09-09T08:54:16;19.60;99.90
19031;DHT22;9648;51.130;13.978;2022-09-09T08:56:44;19.60;99.90
19031;DHT22;9648;51.130;13.978;2022-09-09T08:59:15;19.60;99.90
19031;DHT22;9648;51.130;13.978;2022-09-09T09:01:58;19.70;99.90
19031;DHT22;9648;51.130;13.978;2022-09-09T09:04:54;19.90;99.90
19031;DHT22;9648;51.130;13.978;2022-09-09T09:07:32;20.10;99.90
19031;DHT22;9648;51.130;13.978;2022-09-09T09:10:05;20.20;99.90
19031;DHT22;9648;51.130;13.978;2022-09-09T09:12:38;20.20;99.90
19031;DHT22;9648;51.130;13.978;2022-09-09T09:15:14;20.20;99.90
19031;DHT22;9648;51.130;13.978;2022-09-09T09:17:44;20.20;99.90
19031;DHT22;9648;51.130;13.978;2022-09-09T09:20:12;20.30;99.90
19031;DHT22;9648;51.130;13.978;2022-09-09T09:22:47;20.30;99.90
19031;DHT22;9648;51.130;13.978;2022-09-09T09:25:18;20.40;99.90
19031;DHT22;9648;51.130;13.978;2022-09-09T09:27:51;20.70;99.90
19031;DHT22;9648;51.130;13.978;2022-09-09T09:30:22;20.80;99.90
19031;DHT22;9648;51.130;13.978;2022-09-09T09:32:53;20.80;99.90
19031;DHT22;9648;51.130;13.978;2022-09-09T09:35:21;20.80;99.90
19031;DHT22;9648;51.130;13.978;2022-09-09T09:37:49;20.60;99.90
19031;DHT22;9648;51.130;13.978;2022-09-09T09:40:17;20.50;99.90
19031;DHT22;9648;51.130;13.978;2022-09-09T09:42:51;20.30;99.90
19031;DHT22;9648;51.130;13.978;2022-09-09T09:45:26;20.10;99.90
19031;DHT22;9648;51.130;13.978;2022-09-09T09:48:00;19.90;99.90
19031;DHT22;9648;51.130;13.978;2022-09-09T09:50:28;19.60;99.90
19031;DHT22;9648;51.130;13.978;2022-09-09T09:52:56;19.40;99.90
19031;DHT22;9648;51.130;13.978;2022-09-09T09:55:24;19.10;99.90
19031;DHT22;9648;51.130;13.978;2022-09-09T09:57:53;18.80;99.90
19031;DHT22;9648;51.130;13.978;2022-09-09T10:00:22;18.60;99.90
19031;DHT22;9648;51.130;13.978;2022-09-09T10:02:50;18.50;99.90
19031;DHT22;9648;51.130;13.978;2022-09-09T10:05:20;18.40;99.90
19031;DHT22;9648;51.130;13.978;2022-09-09T10:08:00;18.50;99.90
19031;DHT22;9648;51.130;13.978;2022-09-09T10:10:38;18.50;99.90
19031;DHT22;9648;51.130;13.978;2022-09-09T10:13:13;18.60;99.90
19031;DHT22;9648;51.130;13.978;2022-09-09T10:15:48;18.70;99.90
19031;DHT22;9648;51.130;13.978;2022-09-09T10:18:30;18.90;99.90
19031;DHT22;9648;51.130;13.978;2022-09-09T10:21:16;18.90;99.90
19031;DHT22;9648;51.130;13.978;2022-09-09T10:23:56;18.90;99.90
19031;DHT22;9648;51.130;13.978;2022-09-09T10:26:35;19.00;99.90
19031;DHT22;9648;51.130;13.978;2022-09-09T10:29:28;19.10;99.90
19031;DHT22;9648;51.130;13.978;2022-09-09T10:32:09;19.20;99.90
19031;DHT22;9648;51.130;13.978;2022-09-09T10:34:57;19.20;99.90
19031;DHT22;9648;51.130;13.978;2022-09-09T10:37:38;19.30;99.90
19031;DHT22;9648;51.130;13.978;2022-09-09T10:40:19;19.30;99.90
19031;DHT22;9648;51.130;13.978;2022-09-09T10:42:47;19.40;99.90
19031;DHT22;9648;51.130;13.978;2022-09-09T10:45:18;19.40;99.90
19031;DHT22;9648;51.130;13.978;2022-09-09T10:48:02;19.50;99.90
19031;DHT22;9648;51.130;13.978;2022-09-09T10:50:58;19.50;99.90
19031;DHT22;9648;51.130;13.978;2022-09-09T10:53:41;19.60;99.90
19031;DHT22;9648;51.130;13.978;2022-09-09T10:56:12;19.70;99.90
19031;DHT22;9648;51.130;13.978;2022-09-09T10:58:43;19.70;99.90
19031;DHT22;9648;51.130;13.978;2022-09-09T11:01:15;19.70;99.90
19031;DHT22;9648;51.130;13.978;2022-09-09T11:03:49;19.80;99.90
19031;DHT22;9648;51.130;13.978;2022-09-09T11:06:19;19.80;99.90
19031;DHT22;9648;51.130;13.978;2022-09-09T11:08:49;19.80;99.90
19031;DHT22;9648;51.130;13.978;2022-09-09T11:11:21;19.80;99.90
19031;DHT22;9648;51.130;13.978;2022-09-09T11:13:55;19.90;99.90
19031;DHT22;9648;51.130;13.978;2022-09-09T11:16:29;20.00;99.90
19031;DHT22;9648;51.130;13.978;2022-09-09T11:19:00;20.10;99.90
19031;DHT22;9648;51.130;13.978;2022-09-09T11:21:31;20.10;99.90
19031;DHT22;9648;51.130;13.978;2022-09-09T11:24:03;20.20;99.90
19031;DHT22;9648;51.130;13.978;2022-09-09T11:26:38;20.20;99.90
19031;DHT22;9648;51.130;13.978;2022-09-09T11:29:29;20.20;99.90
19031;DHT22;9648;51.130;13.978;2022-09-09T11:32:10;20.20;99.90
19031;DHT22;9648;51.130;13.978;2022-09-09T11:34:51;20.30;99.90
19031;DHT22;9648;51.130;13.978;2022-09-09T11:37:35;20.30;99.90
19031;DHT22;9648;51.130;13.978;2022-09-09T11:40:19;20.50;99.90
19031;DHT22;9648;51.130;13.978;2022-09-09T11:42:48;20.60;99.90
19031;DHT22;9648;51.130;13.978;2022-09-09T11:45:22;20.60;99.90
19031;DHT22;9648;51.130;13.978;2022-09-09T11:47:52;20.70;99.90
19031;DHT22;9648;51.130;13.978;2022-09-09T11:50:32;20.70;99.90
19031;DHT22;9648;51.130;13.978;2022-09-09T11:53:06;20.80;99.90
19031;DHT22;9648;51.130;13.978;2022-09-09T11:55:43;20.80;99.90
19031;DHT22;9648;51.130;13.978;2022-09-09T11:58:17;21.10;99.90
19031;DHT22;9648;51.130;13.978;2022-09-09T12:00:45;21.50;99.90
19031;DHT22;9648;51.130;13.978;2022-09-09T12:03:38;22.00;99.90
19031;DHT22;9648;51.130;13.978;2022-09-09T12:06:13;22.20;99.90
19031;DHT22;9648;51.130;13.978;2022-09-09T12:08:45;22.50;99.90
19031;DHT22;9648;51.130;13.978;2022-09-09T12:11:24;22.60;99.90
19031;DHT22;9648;51.130;13.978;2022-09-09T12:13:58;22.60;99.90
19031;DHT22;9648;51.130;13.978;2022-09-09T12:16:31;22.50;99.90
19031;DHT22;9648;51.130;13.978;2022-09-09T12:19:12;22.20;99.90
19031;DHT22;9648;51.130;13.978;2022-09-09T12:21:45;22.00;99.90
19031;DHT22;9648;51.130;13.978;2022-09-09T12:24:19;21.90;99.90
19031;DHT22;9648;51.130;13.978;2022-09-09T12:26:54;22.00;99.90
19031;DHT22;9648;51.130;13.978;2022-09-09T12:29:27;22.00;99.90
19031;DHT22;9648;51.130;13.978;2022-09-09T12:32:02;21.90;99.90
19031;DHT22;9648;51.130;13.978;2022-09-09T12:34:39;21.90;99.90
19031;DHT22;9648;51.130;13.978;2022-09-09T12:37:17;22.00;99.90
19031;DHT22;9648;51.130;13.978;2022-09-09T12:39:49;22.10;99.90
19031;DHT22;9648;51.130;13.978;2022-09-09T12:42:20;22.10;99.90
19031;DHT22;9648;51.130;13.978;2022-09-09T12:44:55;22.00;99.90
19031;DHT22;9648;51.130;13.978;2022-09-09T12:47:26;22.00;99.90
19031;DHT22;9648;51.130;13.978;2022-09-09T12:49:55;22.10;99.90
19031;DHT22;9648;51.130;13.978;2022-09-09T12:52:27;22.10;99.90
19031;DHT22;9648;51.130;13.978;2022-09-09T12:54:57;22.40;99.90
19031;DHT22;9648;51.130;13.978;2022-09-09T12:57:32;22.50;99.90
19031;DHT22;9648;51.130;13.978;2022-09-09T13:00:07;22.60;99.90
19031;DHT22;9648;51.130;13.978;2022-09-09T13:02:46;22.80;99.90
19031;DHT22;9648;51.130;13.978;2022-09-09T13:05:19;22.70;99.90
19031;DHT22;9648;51.130;13.978;2022-09-09T13:07:46;22.80;99.90
19031;DHT22;9648;51.130;13.978;2022-09-09T13:10:17;22.70;99.90
19031;DHT22;9648;51.130;13.978;2022-09-09T13:12:48;22.50;99.90
19031;DHT22;9648;51.130;13.978;2022-09-09T13:15:21;22.20;99.90
19031;DHT22;9648;51.130;13.978;2022-09-09T13:17:53;22.00;99.90
19031;DHT22;9648;51.130;13.978;2022-09-09T13:20:22;22.00;99.90
19031;DHT22;9648;51.130;13.978;2022-09-09T13:22:51;22.10;99.90
19031;DHT22;9648;51.130;13.978;2022-09-09T13:25:21;22.20;99.90
19031;DHT22;9648;51.130;13.978;2022-09-09T13:28:03;22.20;99.90
19031;DHT22;9648;51.130;13.978;2022-09-09T13:30:31;22.20;99.90
19031;DHT22;9648;51.130;13.978;2022-09-09T13:33:04;22.30;99.90
19031;DHT22;9648;51.130;13.978;2022-09-09T13:35:31;22.30;99.90
19031;DHT22;9648;51.130;13.978;2022-09-09T13:37:59;22.40;99.90
19031;DHT22;9648;51.130;13.978;2022-09-09T13:40:26;22.50;99.90
19031;DHT22;9648;51.130;13.978;2022-09-09T13:42:55;22.60;99.90
19031;DHT22;9648;51.130;13.978;2022-09-09T13:45:26;22.60;99.90
19031;DHT22;9648;51.130;13.978;2022-09-09T13:47:54;22.60;99.90
19031;DHT22;9648;51.130;13.978;2022-09-09T13:50:23;22.60;99.90
19031;DHT22;9648;51.130;13.978;2022-09-09T13:52:52;22.50;99.90
19031;DHT22;9648;51.130;13.978;2022-09-09T13:55:19;22.60;99.90
19031;DHT22;9648;51.130;13.978;2022-09-09T13:57:51;22.70;99.90
19031;DHT22;9648;51.130;13.978;2022-09-09T14:00:19;22.80;99.90
19031;DHT22;9648;51.130;13.978;2022-09-09T14:02:47;22.90;99.90
19031;DHT22;9648;51.130;13.978;2022-09-09T14:05:14;23.00;99.90
19031;DHT22;9648;51.130;13.978;2022-09-09T14:07:42;22.90;99.90
19031;DHT22;9648;51.130;13.978;2022-09-09T14:10:10;23.00;99.90
19031;DHT22;9648;51.130;13.978;2022-09-09T14:12:37;23.10;99.90
19031;DHT22;9648;51.130;13.978;2022-09-09T14:15:06;23.10;99.90
19031;DHT22;9648;51.130;13.978;2022-09-09T14:17:33;22.90;99.90
19031;DHT22;9648;51.130;13.978;2022-09-09T14:20:03;22.60;99.90
19031;DHT22;9648;51.130;13.978;2022-09-09T14:22:31;22.50;99.90
19031;DHT22;9648;51.130;13.978;2022-09-09T14:24:58;22.30;99.90
19031;DHT22;9648;51.130;13.978;2022-09-09T14:27:25;22.30;99.90
19031;DHT22;9648;51.130;13.978;2022-09-09T14:29:52;22.30;99.90
19031;DHT22;9648;51.130;13.978;2022-09-09T14:32:19;22.30;99.90
19031;DHT22;9648;51.130;13.978;2022-09-09T14:34:46;22.30;99.90
19031;DHT22;9648;51.130;13.978;2022-09-09T14:37:16;22.30;99.90
19031;DHT22;9648;51.130;13.978;2022-09-09T14:39:43;22.50;99.90
19031;DHT22;9648;51.130;13.978;2022-09-09T14:42:10;22.60;99.90
19031;DHT22;9648;51.130;13.978;2022-09-09T14:44:37;22.80;99.90
19031;DHT22;9648;51.130;13.978;2022-09-09T14:47:04;22.90;99.90
19031;DHT22;9648;51.130;13.978;2022-09-09T14:49:31;23.00;99.90
19031;DHT22;9648;51.130;13.978;2022-09-09T14:51:57;23.10;99.90
19031;DHT22;9648;51.130;13.978;2022-09-09T14:54:25;23.20;99.90
19031;DHT22;9648;51.130;13.978;2022-09-09T14:56:54;23.20;99.90
19031;DHT22;9648;51.130;13.978;2022-09-09T14:59:22;23.20;99.90
19031;DHT22;9648;51.130;13.978;2022-09-09T15:01:49;23.20;99.90
19031;DHT22;9648;51.130;13.978;2022-09-09T15:04:16;23.30;99.90
19031;DHT22;9648;51.130;13.978;2022-09-09T15:06:43;23.20;99.90
19031;DHT22;9648;51.130;13.978;2022-09-09T15:09:13;23.10;99.90
19031;DHT22;9648;51.130;13.978;2022-09-09T15:11:42;23.00;99.90
19031;DHT22;9648;51.130;13.978;2022-09-09T15:14:09;22.80;99.90
19031;DHT22;9648;51.130;13.978;2022-09-09T15:16:38;22.70;99.90
19031;DHT22;9648;51.130;13.978;2022-09-09T15:19:05;22.50;99.90
19031;DHT22;9648;51.130;13.978;2022-09-09T15:21:33;22.40;99.90
19031;DHT22;9648;51.130;13.978;2022-09-09T15:24:00;22.40;99.90
19031;DHT22;9648;51.130;13.978;2022-09-09T15:26:28;22.30;99.90
19031;DHT22;9648;51.130;13.978;2022-09-09T15:28:57;22.30;99.90
19031;DHT22;9648;51.130;13.978;2022-09-09T15:31:26;22.20;99.90
19031;DHT22;9648;51.130;13.978;2022-09-09T15:33:55;22.20;99.90
19031;DHT22;9648;51.130;13.978;2022-09-09T15:36:27;22.10;99.90
19031;DHT22;9648;51.130;13.978;2022-09-09T15:38:54;22.00;99.90
19031;DHT22;9648;51.130;13.978;2022-09-09T15:41:22;21.90;99.90
19031;DHT22;9648;51.130;13.978;2022-09-09T15:43:51;21.80;99.90
19031;DHT22;9648;51.130;13.978;2022-09-09T15:46:26;21.70;99.90
19031;DHT22;9648;51.130;13.978;2022-09-09T15:48:54;21.60;99.90
19031;DHT22;9648;51.130;13.978;2022-09-09T15:51:22;21.50;99.90
19031;DHT22;9648;51.130;13.978;2022-09-09T15:53:49;21.20;99.90